Time;durP1;ratioP1;P1;durP2;ratioP2;P2;SDS_P1;SDS_P2;PMS_P1;PMS_P2;Temp;Humidity;BMP_temperature;BMP_pressure;BME280_temperature;BME280_humidity;BME280_pressure;Samples;Min_cycle;Max_cycle;Signal;HPM_P1;HPM_P2
2023/03/21 00:00:40;;;;;;;36.15;11.13;;;9.00;99.90;;;;;;5002361;28;20046;-69
2023/03/21 00:03:06;;;;;;;35.22;10.25;;;9.00;99.90;;;;;;5002901;28;20403;-68
2023/03/21 00:05:32;;;;;;;39.00;10.75;;;9.00;99.90;;;;;;4999259;28;20034;-69
2023/03/21 00:07:57;;;;;;;38.17;10.97;;;8.90;99.90;;;;;;5000439;28;20716;-68
2023/03/21 00:10:23;;;;;;;32.73;11.17;;;9.00;99.90;;;;;;5003446;28;20052;-70
2023/03/21 00:12:57;;;;;;;33.53;10.73;;;8.90;99.90;;;;;;5001274;28;20505;-69
2023/03/21 00:15:28;;;;;;;35.58;10.50;;;8.90;99.90;;;;;;4985546;28;20049;-69
2023/03/21 00:18:02;;;;;;;35.85;11.07;;;8.90;99.90;;;;;;5002809;28;20046;-69
2023/03/21 00:20:30;;;;;;;39.25;11.10;;;9.00;99.90;;;;;;4985346;28;20120;-69
2023/03/21 00:22:55;;;;;;;29.75;10.00;;;8.90;99.90;;;;;;5002670;28;20030;-69
2023/03/21 00:25:21;;;;;;;32.87;9.60;;;9.00;99.90;;;;;;5003825;28;20174;-69
2023/03/21 00:27:46;;;;;;;39.90;11.63;;;8.90;99.90;;;;;;5008262;28;20385;-69
2023/03/21 00:30:12;;;;;;;32.03;10.07;;;9.00;99.90;;;;;;5010047;28;20760;-69
2023/03/21 00:32:40;;;;;;;38.05;9.63;;;8.90;99.90;;;;;;5005330;28;20049;-69
2023/03/21 00:35:05;;;;;;;30.27;9.63;;;9.00;99.90;;;;;;5005523;28;20057;-69
2023/03/21 00:37:31;;;;;;;32.83;10.23;;;9.00;99.90;;;;;;5004436;28;20450;-69
2023/03/21 00:39:57;;;;;;;26.73;8.70;;;8.90;99.90;;;;;;5000577;28;20295;-68
2023/03/21 00:42:22;;;;;;;30.77;9.87;;;9.00;99.90;;;;;;5002836;28;20038;-69
2023/03/21 00:44:48;;;;;;;24.70;9.00;;;9.00;99.90;;;;;;5002599;28;20369;-68
2023/03/21 00:47:14;;;;;;;21.73;8.23;;;9.00;99.90;;;;;;5002200;28;20610;-69
2023/03/21 00:49:39;;;;;;;24.25;8.55;;;9.00;99.90;;;;;;5006132;28;20100;-69
2023/03/21 00:52:07;;;;;;;21.93;7.87;;;9.00;99.90;;;;;;5002987;28;20057;-69
2023/03/21 00:54:34;;;;;;;19.45;7.30;;;9.00;99.90;;;;;;4999536;28;20045;-69
2023/03/21 00:57:01;;;;;;;;;;;9.00;99.90;;;;;;5004633;28;20125;-69
2023/03/21 00:59:29;;;;;;;26.60;7.78;;;9.00;99.90;;;;;;5002407;28;20634;-69
2023/03/21 01:01:59;;;;;;;22.65;7.63;;;9.00;99.90;;;;;;5001550;28;20175;-70
2023/03/21 01:04:25;;;;;;;26.38;8.65;;;9.00;99.90;;;;;;5004927;28;20136;-69
2023/03/21 01:06:51;;;;;;;26.23;8.68;;;9.00;99.90;;;;;;5007744;28;20050;-69
2023/03/21 01:09:20;;;;;;;25.70;8.48;;;9.00;99.90;;;;;;5006764;28;20496;-69
2023/03/21 01:11:48;;;;;;;25.95;9.40;;;9.00;99.90;;;;;;5008825;28;20078;-68
2023/03/21 01:14:15;;;;;;;22.40;9.27;;;9.10;99.90;;;;;;5007218;28;20037;-69
2023/03/21 01:16:41;;;;;;;29.02;9.32;;;9.10;99.90;;;;;;5003761;28;20092;-68
2023/03/21 01:19:08;;;;;;;22.48;8.57;;;9.10;99.90;;;;;;5005185;28;20468;-69
2023/03/21 01:21:35;;;;;;;21.80;8.80;;;9.10;99.90;;;;;;5002209;28;20126;-68
2023/03/21 01:24:00;;;;;;;23.45;8.75;;;9.10;99.90;;;;;;5001362;28;20064;-69
2023/03/21 01:26:27;;;;;;;20.73;8.65;;;9.10;99.90;;;;;;5005160;28;20115;-68
2023/03/21 01:28:52;;;;;;;21.40;8.15;;;9.10;99.90;;;;;;5003935;28;20053;-69
2023/03/21 01:31:18;;;;;;;19.73;8.40;;;9.10;99.90;;;;;;5002288;28;20053;-68
2023/03/21 01:33:45;;;;;;;25.33;8.80;;;9.10;99.90;;;;;;5002736;28;20044;-68
2023/03/21 01:36:18;;;;;;;22.55;9.05;;;9.10;99.90;;;;;;4987829;28;20073;-68
2023/03/21 01:38:44;;;;;;;21.48;7.95;;;9.10;99.90;;;;;;4999879;28;20097;-69
2023/03/21 01:41:34;;;;;;;16.63;7.25;;;9.10;99.90;;;;;;5000972;28;20045;-69
2023/03/21 01:44:00;;;;;;;16.90;7.13;;;9.10;99.90;;;;;;4989263;28;20112;-69
2023/03/21 01:46:45;;;;;;;21.30;7.85;;;9.10;99.90;;;;;;5002234;28;20034;-69
2023/03/21 01:49:40;;;;;;;20.60;7.50;;;9.10;99.90;;;;;;4995045;28;20050;-69
2023/03/21 01:52:23;;;;;;;15.30;7.15;;;9.10;99.90;;;;;;5001965;28;20044;-69
2023/03/21 01:54:50;;;;;;;16.00;6.57;;;9.10;99.90;;;;;;4998577;28;20054;-69
2023/03/21 01:57:23;;;;;;;15.48;6.80;;;9.10;99.90;;;;;;5003739;28;20399;-69
2023/03/21 01:59:53;;;;;;;15.80;7.10;;;9.20;99.90;;;;;;5002586;28;20046;-69
2023/03/21 02:02:24;;;;;;;11.70;6.40;;;9.10;99.90;;;;;;4985732;28;20030;-68
2023/03/21 02:04:54;;;;;;;15.15;6.65;;;9.20;99.90;;;;;;5000358;28;20046;-69
2023/03/21 02:07:30;;;;;;;13.38;6.78;;;9.20;99.90;;;;;;5002969;28;20074;-69
2023/03/21 02:09:57;;;;;;;11.55;6.10;;;9.20;99.90;;;;;;4998633;28;20123;-69
2023/03/21 02:12:24;;;;;;;10.68;5.82;;;9.20;99.90;;;;;;5003666;28;20056;-69
2023/03/21 02:14:51;;;;;;;10.32;5.82;;;9.20;99.90;;;;;;5000820;28;20065;-69
2023/03/21 02:17:38;;;;;;;12.40;6.13;;;9.20;99.90;;;;;;5002966;28;20041;-69
2023/03/21 02:20:15;;;;;;;10.32;5.50;;;9.20;99.90;;;;;;5005469;28;20042;-69
2023/03/21 02:22:59;;;;;;;12.43;5.85;;;9.20;99.90;;;;;;5001464;28;20042;-69
2023/03/21 02:25:34;;;;;;;9.25;5.22;;;9.20;99.90;;;;;;5001197;28;20065;-69
2023/03/21 02:28:22;;;;;;;10.02;5.55;;;9.20;99.90;;;;;;5000842;28;20049;-69
2023/03/21 02:31:13;;;;;;;10.80;5.57;;;9.20;99.90;;;;;;5004309;28;20098;-68
2023/03/21 02:33:53;;;;;;;9.82;5.72;;;9.20;99.90;;;;;;4998489;28;20520;-68
2023/03/21 02:36:44;;;;;;;10.23;5.68;;;9.20;99.90;;;;;;5001191;28;20042;-69
2023/03/21 02:39:25;;;;;;;11.57;6.50;;;9.20;99.90;;;;;;5001072;28;20038;-69
2023/03/21 02:42:06;;;;;;;11.15;5.72;;;9.20;99.90;;;;;;5002746;28;20466;-69
2023/03/21 02:44:47;;;;;;;11.77;5.93;;;9.30;99.90;;;;;;4998046;28;20128;-69
2023/03/21 02:47:20;;;;;;;11.07;6.00;;;9.20;99.90;;;;;;5001293;28;20104;-68
2023/03/21 02:49:57;;;;;;;12.55;6.30;;;9.20;99.90;;;;;;4996720;28;20041;-69
2023/03/21 02:52:30;;;;;;;14.00;6.22;;;9.30;99.90;;;;;;4998852;28;20049;-69
2023/03/21 02:54:59;;;;;;;13.32;6.50;;;9.20;99.90;;;;;;5001499;28;20050;-69
2023/03/21 02:57:28;;;;;;;13.63;6.90;;;9.20;99.90;;;;;;4996798;28;20046;-69
2023/03/21 02:59:55;;;;;;;15.10;8.02;;;9.20;99.90;;;;;;4998241;28;20147;-69
2023/03/21 03:02:25;;;;;;;11.27;6.50;;;9.20;99.90;;;;;;5002427;28;20050;-69
2023/03/21 03:04:50;;;;;;;13.40;6.93;;;9.20;99.90;;;;;;4997637;28;20440;-69
2023/03/21 03:07:44;;;;;;;14.93;6.83;;;9.20;99.90;;;;;;4999238;28;20037;-69
2023/03/21 03:10:36;;;;;;;12.88;6.90;;;9.20;99.90;;;;;;5000942;28;20057;-69
2023/03/21 03:13:19;;;;;;;13.88;7.53;;;9.20;99.90;;;;;;5000404;28;20464;-69
2023/03/21 03:16:10;;;;;;;15.68;6.78;;;9.20;99.90;;;;;;4998646;28;20042;-68
2023/03/21 03:18:58;;;;;;;15.65;7.53;;;9.30;99.90;;;;;;5000093;28;20054;-69
2023/03/21 03:21:38;;;;;;;16.10;7.50;;;9.30;99.90;;;;;;5014785;28;20528;-69
2023/03/21 03:24:15;;;;;;;14.63;7.47;;;9.20;99.90;;;;;;4993305;28;20471;-69
2023/03/21 03:26:47;;;;;;;;;;;9.20;99.90;;;;;;4985316;28;20073;-69
2023/03/21 03:29:16;;;;;;;13.75;6.95;;;9.20;99.90;;;;;;5000147;28;19976;-69
2023/03/21 03:31:48;;;;;;;17.80;7.35;;;9.20;99.90;;;;;;4999090;28;20306;-69
2023/03/21 03:34:22;;;;;;;20.13;7.82;;;9.20;99.90;;;;;;4997860;28;20049;-68
2023/03/21 03:36:55;;;;;;;13.65;6.93;;;9.20;99.90;;;;;;4997176;28;20081;-68
2023/03/21 03:39:25;;;;;;;13.38;6.57;;;9.20;99.90;;;;;;4997453;28;20029;-69
2023/03/21 03:42:00;;;;;;;12.48;6.55;;;9.20;99.90;;;;;;4998223;28;20065;-69
2023/03/21 03:44:27;;;;;;;13.57;6.97;;;9.20;99.90;;;;;;4995918;28;20046;-69
2023/03/21 03:47:05;;;;;;;;;;;9.20;99.90;;;;;;4999179;28;20102;-69
2023/03/21 03:49:36;;;;;;;16.15;6.47;;;9.30;99.90;;;;;;5015457;28;19963;-68
2023/03/21 03:52:20;;;;;;;11.90;6.00;;;9.20;99.90;;;;;;5000627;28;20049;-69
2023/03/21 03:54:48;;;;;;;12.73;6.40;;;9.20;99.90;;;;;;4999746;28;20049;-69
2023/03/21 03:57:15;;;;;;;15.48;6.90;;;9.30;99.90;;;;;;5003848;28;20184;-69
2023/03/21 03:59:43;;;;;;;13.43;6.22;;;9.20;99.90;;;;;;5004290;28;20173;-69
2023/03/21 04:02:09;;;;;;;16.70;6.70;;;9.20;99.90;;;;;;5005125;28;20042;-69
2023/03/21 04:04:35;;;;;;;16.13;6.20;;;9.30;99.90;;;;;;5002488;28;20404;-69
2023/03/21 04:07:02;;;;;;;17.35;6.68;;;9.30;99.90;;;;;;5006828;28;20424;-68
2023/03/21 04:09:28;;;;;;;16.25;6.47;;;9.30;99.90;;;;;;4986953;28;20053;-69
2023/03/21 04:11:55;;;;;;;15.63;6.50;;;9.20;99.90;;;;;;4988769;28;20492;-68
2023/03/21 04:14:21;;;;;;;;;;;9.20;99.90;;;;;;4988403;28;20133;-69
2023/03/21 04:16:46;;;;;;;14.15;6.18;;;9.30;99.90;;;;;;5004728;28;20064;-68
2023/03/21 04:19:12;;;;;;;20.03;7.10;;;9.30;99.90;;;;;;5005497;28;20388;-69
2023/03/21 04:21:38;;;;;;;14.27;6.67;;;9.20;99.90;;;;;;5006515;28;20472;-69
2023/03/21 04:24:06;;;;;;;18.85;7.05;;;9.30;99.90;;;;;;5010398;28;20037;-69
2023/03/21 04:26:32;;;;;;;15.68;6.47;;;9.30;99.90;;;;;;5008180;28;20056;-68
2023/03/21 04:28:59;;;;;;;15.88;7.15;;;9.20;99.90;;;;;;5005406;28;20041;-68
2023/03/21 04:31:27;;;;;;;14.88;6.00;;;9.30;99.90;;;;;;5004550;28;20046;-68
2023/03/21 04:33:54;;;;;;;13.73;6.57;;;9.20;99.90;;;;;;5004010;28;20072;-69
2023/03/21 04:36:29;;;;;;;15.68;7.20;;;9.20;99.90;;;;;;5002536;28;20050;-69
2023/03/21 04:38:59;;;;;;;19.15;6.65;;;9.20;99.90;;;;;;4999335;28;20049;-69
2023/03/21 04:41:29;;;;;;;17.50;7.38;;;9.20;99.90;;;;;;5004530;28;20065;-68
2023/03/21 04:43:55;;;;;;;18.15;7.53;;;9.30;99.90;;;;;;5005028;28;20038;-69
2023/03/21 04:46:21;;;;;;;15.40;7.57;;;9.20;99.90;;;;;;5018116;28;20057;-69
2023/03/21 04:48:47;;;;;;;18.58;6.93;;;9.20;99.90;;;;;;5004786;28;20050;-69
2023/03/21 04:51:14;;;;;;;15.50;7.40;;;9.30;99.90;;;;;;5006096;28;20053;-69
2023/03/21 04:53:43;;;;;;;;;;;9.20;99.90;;;;;;5004755;28;20064;-68
2023/03/21 04:56:09;;;;;;;16.98;7.50;;;9.20;99.90;;;;;;5004625;28;20291;-69
2023/03/21 04:58:35;;;;;;;18.70;7.35;;;9.20;99.90;;;;;;5002082;28;20042;-69
2023/03/21 05:01:04;;;;;;;17.30;7.40;;;9.20;99.90;;;;;;5001160;28;20096;-68
2023/03/21 05:03:33;;;;;;;17.08;8.05;;;9.30;99.90;;;;;;4991437;28;20393;-67
2023/03/21 05:06:02;;;;;;;14.02;7.05;;;9.30;99.90;;;;;;5004859;28;20045;-68
2023/03/21 05:08:28;;;;;;;15.70;6.97;;;9.30;99.90;;;;;;4987166;28;20125;-68
2023/03/21 05:10:54;;;;;;;15.00;7.27;;;9.30;99.90;;;;;;5003422;28;20483;-68
2023/03/21 05:13:19;;;;;;;14.37;6.77;;;9.30;99.90;;;;;;5002359;28;20538;-68
2023/03/21 05:15:45;;;;;;;14.53;7.40;;;9.20;99.90;;;;;;5000437;28;20292;-68
2023/03/21 05:18:11;;;;;;;16.17;7.67;;;9.30;99.90;;;;;;5003497;28;20797;-67
2023/03/21 05:20:41;;;;;;;15.23;7.17;;;9.30;99.90;;;;;;5004563;28;20124;-67
2023/03/21 05:23:09;;;;;;;13.00;7.20;;;9.30;99.90;;;;;;5001613;28;20041;-67
2023/03/21 05:25:36;;;;;;;13.27;6.95;;;9.30;99.90;;;;;;5005830;28;20064;-68
2023/03/21 05:28:04;;;;;;;15.02;7.32;;;9.40;99.90;;;;;;5005121;28;20045;-68
2023/03/21 05:30:30;;;;;;;13.50;7.05;;;9.30;99.90;;;;;;4997621;28;20069;-72
2023/03/21 05:32:55;;;;;;;15.15;7.95;;;9.30;99.90;;;;;;5003483;28;20052;-70
2023/03/21 05:35:21;;;;;;;14.57;7.20;;;9.30;99.90;;;;;;4984457;28;20045;-67
2023/03/21 05:37:47;;;;;;;12.75;6.38;;;9.30;99.90;;;;;;5004154;28;20507;-69
2023/03/21 05:40:13;;;;;;;14.57;6.63;;;9.30;99.90;;;;;;5004880;28;20038;-69
2023/03/21 05:42:38;;;;;;;13.87;6.17;;;9.30;99.90;;;;;;5005437;28;20255;-70
2023/03/21 05:45:05;;;;;;;15.33;7.10;;;9.30;99.90;;;;;;5007279;28;20165;-68
2023/03/21 05:47:31;;;;;;;13.95;6.55;;;9.30;99.90;;;;;;5004697;28;20075;-70
2023/03/21 05:49:56;;;;;;;12.32;6.25;;;9.30;99.90;;;;;;5004144;28;20124;-67
2023/03/21 05:52:22;;;;;;;13.83;6.60;;;9.30;99.90;;;;;;4986628;28;20050;-69
2023/03/21 05:54:48;;;;;;;14.15;6.95;;;9.30;99.90;;;;;;5004529;28;20038;-68
2023/03/21 05:57:14;;;;;;;17.83;6.57;;;9.30;99.90;;;;;;5003963;28;20422;-68
2023/03/21 05:59:40;;;;;;;11.40;6.00;;;9.30;99.90;;;;;;5002088;28;20046;-69
2023/03/21 06:02:06;;;;;;;12.33;6.33;;;9.40;99.90;;;;;;5004094;28;20165;-71
2023/03/21 06:04:34;;;;;;;11.60;6.20;;;9.30;99.90;;;;;;5001681;28;20547;-71
2023/03/21 06:06:59;;;;;;;14.77;6.50;;;9.40;99.90;;;;;;5003468;28;20463;-70
2023/03/21 06:09:25;;;;;;;12.87;6.60;;;9.30;99.90;;;;;;5002910;28;20042;-73
2023/03/21 06:11:54;;;;;;;13.73;6.03;;;9.30;99.90;;;;;;5003300;28;20085;-73
2023/03/21 06:14:25;;;;;;;16.17;7.50;;;9.40;99.90;;;;;;5008866;23;20312;-84
2023/03/21 06:16:55;;;;;;;14.13;7.55;;;9.40;99.90;;;;;;5030364;28;20049;-83
2023/03/21 06:19:25;;;;;;;13.77;6.72;;;9.40;99.90;;;;;;5012362;28;20033;-84
2023/03/21 06:22:08;;;;;;;14.20;6.57;;;9.40;99.90;;;;;;5014225;28;20575;-83
2023/03/21 06:24:46;;;;;;;12.25;6.22;;;9.30;99.90;;;;;;5021472;28;20148;-84
2023/03/21 06:27:29;;;;;;;13.35;7.05;;;9.40;99.90;;;;;;5027004;28;20037;-84
2023/03/21 06:29:58;;;;;;;13.15;7.05;;;9.40;99.90;;;;;;4994279;28;20040;-84
2023/03/21 06:35:33;;;;;;;13.38;6.28;;;9.40;99.90;;;;;;5001401;28;20320;-84
2023/03/21 06:37:59;;;;;;;12.93;6.72;;;9.40;99.90;;;;;;4996251;28;20048;-83
2023/03/21 06:40:25;;;;;;;12.70;6.10;;;9.40;99.90;;;;;;5013280;28;20041;-84
2023/03/21 06:43:09;;;;;;;13.47;6.33;;;9.40;99.90;;;;;;5009089;28;20065;-84
2023/03/21 06:45:52;;;;;;;13.52;6.38;;;9.50;99.90;;;;;;4998753;28;20282;-83
2023/03/21 06:55:32;;;;;;;11.45;6.00;;;9.50;99.90;;;;;;4923890;28;20533;-83
2023/03/21 06:58:11;;;;;;;11.17;5.97;;;9.50;99.90;;;;;;5009078;28;20573;-82
2023/03/21 07:01:42;;;;;;;;;;;;;;;;;;;;;
2023/03/21 07:04:14;;;;;;;10.57;5.75;;;9.60;99.90;;;;;;5001240;28;20623;-84
2023/03/21 07:06:39;;;;;;;12.40;6.25;;;9.50;99.90;;;;;;5025975;28;20038;-83
2023/03/21 07:09:08;;;;;;;9.03;5.07;;;9.50;99.90;;;;;;4995052;28;20201;-83
2023/03/21 07:11:35;;;;;;;10.40;5.50;;;9.50;99.90;;;;;;5032121;28;20041;-84
2023/03/21 07:14:04;;;;;;;10.63;5.28;;;9.50;99.90;;;;;;5012057;28;20489;-83
2023/03/21 07:16:35;;;;;;;11.65;5.60;;;9.50;99.90;;;;;;5010991;28;20157;-84
2023/03/21 07:19:03;;;;;;;11.13;5.15;;;9.50;99.90;;;;;;5007788;28;20504;-84
2023/03/21 07:21:29;;;;;;;10.00;5.97;;;9.50;99.90;;;;;;4994615;28;20056;-83
2023/03/21 07:23:58;;;;;;;11.45;5.53;;;9.50;99.90;;;;;;4997655;28;20556;-83
2023/03/21 07:26:23;;;;;;;10.77;5.80;;;9.50;99.90;;;;;;5030699;28;20040;-83
2023/03/21 07:28:52;;;;;;;12.50;5.90;;;9.60;99.90;;;;;;5003744;28;20599;-83
2023/03/21 07:31:24;;;;;;;9.32;5.38;;;9.50;99.90;;;;;;5015999;28;20136;-84
2023/03/21 07:33:53;;;;;;;10.07;5.43;;;9.50;99.90;;;;;;5021438;28;20480;-85
2023/03/21 07:36:22;;;;;;;9.38;5.70;;;9.60;99.90;;;;;;5037669;28;20562;-82
2023/03/21 07:38:47;;;;;;;9.63;5.15;;;9.60;99.90;;;;;;5021150;28;20041;-82
2023/03/21 07:41:13;;;;;;;11.43;5.77;;;9.60;99.90;;;;;;5038460;28;20511;-84
2023/03/21 07:43:51;;;;;;;;;;;;;;;;;;;;;
2023/03/21 07:46:26;;;;;;;8.73;5.13;;;9.60;99.90;;;;;;5036639;28;20045;-83
2023/03/21 07:48:54;;;;;;;8.70;4.85;;;9.60;99.90;;;;;;5020633;28;20055;-84
2023/03/21 07:51:23;;;;;;;10.50;5.47;;;9.60;99.90;;;;;;5037658;28;20053;-84
2023/03/21 07:53:51;;;;;;;8.25;5.25;;;9.60;99.90;;;;;;5017585;28;20124;-84
2023/03/21 07:56:35;;;;;;;;;;;;;;;;;;;;;
2023/03/21 07:59:07;;;;;;;7.40;4.53;;;9.60;99.90;;;;;;5018669;28;20496;-84
2023/03/21 08:01:40;;;;;;;7.97;4.75;;;9.70;99.90;;;;;;5020291;28;20508;-83
2023/03/21 08:04:07;;;;;;;9.13;5.05;;;9.60;99.90;;;;;;5004341;28;20084;-85
2023/03/21 08:06:33;;;;;;;8.68;4.80;;;9.60;99.90;;;;;;5018871;28;20034;-83
2023/03/21 08:08:58;;;;;;;10.40;5.75;;;9.60;99.90;;;;;;5003174;28;20128;-84
2023/03/21 08:11:30;;;;;;;9.20;4.80;;;9.60;99.90;;;;;;5022847;28;20056;-84
2023/03/21 08:13:59;;;;;;;7.97;4.90;;;9.70;99.90;;;;;;5038114;28;20105;-84
2023/03/21 08:16:25;;;;;;;9.73;5.35;;;9.70;99.90;;;;;;5002539;28;20045;-84
2023/03/21 08:18:53;;;;;;;10.27;5.57;;;9.70;99.90;;;;;;5030054;28;20075;-82
2023/03/21 08:21:27;;;;;;;9.50;5.75;;;9.70;99.90;;;;;;5003201;28;20148;-84
2023/03/21 08:23:53;;;;;;;10.13;5.38;;;9.60;99.90;;;;;;5029811;28;20487;-85
2023/03/21 08:26:24;;;;;;;9.98;5.60;;;9.60;99.90;;;;;;5004962;28;20037;-85
2023/03/21 08:29:02;;;;;;;10.80;6.05;;;9.60;99.90;;;;;;5019270;28;20053;-82
2023/03/21 08:31:30;;;;;;;9.95;5.90;;;9.70;99.90;;;;;;5039099;28;20045;-84
2023/03/21 08:33:59;;;;;;;11.73;6.82;;;9.70;99.90;;;;;;5036667;28;20144;-84
2023/03/21 08:36:29;;;;;;;12.65;6.40;;;9.70;99.90;;;;;;5035965;28;20465;-85
2023/03/21 08:39:12;;;;;;;12.75;6.40;;;9.60;99.90;;;;;;5018158;28;20084;-85
2023/03/21 08:41:38;;;;;;;9.40;5.65;;;9.70;99.90;;;;;;5020633;28;20073;-84
2023/03/21 08:44:05;;;;;;;11.70;6.53;;;9.70;99.90;;;;;;5017298;28;20147;-84
2023/03/21 08:46:31;;;;;;;12.85;7.53;;;9.80;99.90;;;;;;5034340;28;20037;-84
2023/03/21 08:48:57;;;;;;;14.63;7.53;;;9.70;99.90;;;;;;5023969;28;20063;-85
2023/03/21 08:51:23;;;;;;;13.25;6.40;;;9.80;99.90;;;;;;5006581;28;20099;-84
2023/03/21 08:53:52;;;;;;;13.73;8.20;;;9.80;99.90;;;;;;4997345;28;20063;-84
2023/03/21 08:56:18;;;;;;;14.77;7.82;;;9.80;99.90;;;;;;5016573;28;20037;-83
2023/03/21 08:59:01;;;;;;;13.45;7.75;;;9.80;99.90;;;;;;4997497;28;20050;-84
2023/03/21 09:01:27;;;;;;;13.85;8.07;;;9.80;99.90;;;;;;5014184;28;20041;-84
2023/03/21 09:03:53;;;;;;;14.77;8.17;;;9.80;99.90;;;;;;5014848;28;20072;-84
2023/03/21 09:06:18;;;;;;;16.45;8.20;;;9.80;99.90;;;;;;5000373;28;20029;-85
2023/03/21 09:08:45;;;;;;;13.73;7.27;;;9.80;99.90;;;;;;5033694;28;20057;-84
2023/03/21 09:11:13;;;;;;;13.80;8.15;;;9.80;99.90;;;;;;5013829;28;20475;-84
2023/03/21 09:13:39;;;;;;;15.13;7.95;;;9.80;99.90;;;;;;5033220;28;20056;-85
2023/03/21 09:16:05;;;;;;;16.23;7.93;;;9.80;99.90;;;;;;5032040;28;20124;-84
2023/03/21 09:18:56;;;;;;;14.60;7.90;;;9.90;99.90;;;;;;5018271;28;20115;-84
2023/03/21 09:21:26;;;;;;;17.30;8.65;;;9.90;99.90;;;;;;4998798;28;20397;-84
2023/03/21 09:23:58;;;;;;;16.50;8.98;;;9.90;99.90;;;;;;5002222;28;20125;-84
2023/03/21 09:26:27;;;;;;;19.52;9.52;;;9.90;99.90;;;;;;5033336;28;20540;-85
2023/03/21 09:28:57;;;;;;;17.35;9.10;;;9.90;99.90;;;;;;5013411;28;20281;-85
2023/03/21 09:31:26;;;;;;;20.33;9.52;;;9.90;99.90;;;;;;5030619;28;20291;-84
2023/03/21 09:33:56;;;;;;;19.58;10.80;;;9.90;99.90;;;;;;5030399;28;20088;-83
2023/03/21 09:36:33;;;;;;;17.52;10.02;;;9.90;99.90;;;;;;5027163;28;20061;-84
2023/03/21 09:38:59;;;;;;;16.15;9.45;;;10.00;99.90;;;;;;5014452;28;20124;-84
2023/03/21 09:42:29;;;;;;;20.40;9.38;;;9.90;99.90;;;;;;5016252;28;20191;-83
2023/03/21 09:45:08;;;;;;;16.70;9.57;;;10.00;99.90;;;;;;4939070;28;20041;-84
2023/03/21 09:47:58;;;;;;;20.10;8.90;;;9.90;99.90;;;;;;5028096;28;20056;-85
2023/03/21 09:50:58;;;;;;;17.10;8.75;;;10.00;99.90;;;;;;5015239;28;20049;-84
2023/03/21 09:53:34;;;;;;;15.77;8.65;;;10.00;99.90;;;;;;5011761;28;20069;-85
2023/03/21 09:56:01;;;;;;;15.27;8.75;;;9.90;99.90;;;;;;5008964;28;20413;-85
2023/03/21 09:58:49;;;;;;;19.77;7.80;;;10.00;99.90;;;;;;5018858;28;20037;-84
2023/03/21 10:01:40;;;;;;;16.10;8.18;;;10.00;99.90;;;;;;5013941;28;20397;-84
2023/03/21 10:04:10;;;;;;;19.38;8.18;;;9.90;99.90;;;;;;4996324;28;20037;-84
2023/03/21 10:06:40;;;;;;;17.00;7.60;;;10.00;99.90;;;;;;5014005;28;20037;-83
2023/03/21 10:09:26;;;;;;;17.27;7.55;;;10.10;99.90;;;;;;5029693;28;20050;-85
2023/03/21 10:12:00;;;;;;;17.88;8.48;;;10.10;99.90;;;;;;5028290;28;20044;-82
2023/03/21 10:14:41;;;;;;;15.23;8.68;;;10.20;99.90;;;;;;5031049;28;20090;-85
2023/03/21 10:17:41;;;;;;;15.45;7.18;;;10.30;99.90;;;;;;5011734;28;20109;-84
2023/03/21 10:20:21;;;;;;;17.48;8.25;;;10.30;99.90;;;;;;5010895;28;20083;-85
2023/03/21 10:22:54;;;;;;;13.68;8.35;;;10.30;99.90;;;;;;5013731;28;20569;-82
2023/03/21 10:25:39;;;;;;;16.20;7.25;;;10.30;99.90;;;;;;5012950;28;20033;-84
2023/03/21 10:28:27;;;;;;;17.92;8.85;;;10.40;99.90;;;;;;5010644;28;20102;-83
2023/03/21 10:30:54;;;;;;;;;;;10.40;99.90;;;;;;5011097;28;20083;-85
2023/03/21 10:33:44;;;;;;;11.52;6.70;;;10.40;99.90;;;;;;5025502;28;19943;-85
2023/03/21 10:36:34;;;;;;;;;;;;;;;;;;;;;
2023/03/21 10:39:23;;;;;;;9.63;6.13;;;10.50;99.90;;;;;;5027148;28;20056;-85
2023/03/21 10:41:51;;;;;;;9.95;5.82;;;10.60;99.90;;;;;;5003677;28;20057;-84
2023/03/21 10:44:18;;;;;;;11.98;6.03;;;10.60;99.90;;;;;;5010890;28;21534;-84
2023/03/21 10:47:10;;;;;;;12.00;6.22;;;10.60;99.90;;;;;;5025891;28;20397;-84
2023/03/21 10:49:46;;;;;;;11.07;5.88;;;10.70;99.90;;;;;;5009694;28;20080;-84
2023/03/21 10:52:36;;;;;;;15.25;6.15;;;10.80;99.90;;;;;;5013909;28;20327;-84
2023/03/21 10:55:33;;;;;;;8.75;5.32;;;10.90;99.90;;;;;;5007201;28;20481;-83
2023/03/21 10:58:07;;;;;;;13.95;5.85;;;11.00;99.90;;;;;;4988395;28;20508;-85
2023/03/21 11:00:40;;;;;;;13.23;6.50;;;11.10;99.90;;;;;;5026966;28;20076;-84
2023/03/21 11:03:42;;;;;;;10.98;5.90;;;11.20;99.90;;;;;;4995872;28;20033;-85
2023/03/21 11:06:33;;;;;;;12.13;6.00;;;11.20;99.90;;;;;;4969529;28;20050;-84
2023/03/21 11:09:15;;;;;;;14.82;5.45;;;11.20;99.90;;;;;;4997660;28;20048;-84
2023/03/21 11:12:11;;;;;;;;;;;;;;;;;;;;;
2023/03/21 11:14:43;;;;;;;10.77;5.97;;;11.10;99.90;;;;;;5013339;28;21599;-84
2023/03/21 11:20:33;;;;;;;12.18;5.63;;;11.20;99.90;;;;;;5000228;28;20034;-84
2023/03/21 11:23:02;;;;;;;13.75;6.05;;;11.20;99.90;;;;;;5011281;28;20033;-84
2023/03/21 11:25:41;;;;;;;11.70;5.07;;;11.30;99.90;;;;;;5027862;28;20068;-84
2023/03/21 11:28:27;;;;;;;12.30;6.15;;;11.30;99.90;;;;;;5004155;28;20049;-84
2023/03/21 11:31:08;;;;;;;9.00;5.80;;;11.30;99.90;;;;;;5029407;28;20056;-84
2023/03/21 11:33:40;;;;;;;12.40;5.90;;;11.30;99.90;;;;;;5028903;28;20041;-84
2023/03/21 11:36:20;;;;;;;7.88;5.10;;;11.40;99.90;;;;;;5012952;28;20049;-84
2023/03/21 11:39:12;;;;;;;15.57;6.10;;;11.40;99.90;;;;;;5027305;28;20681;-85
2023/03/21 11:41:40;;;;;;;11.27;5.72;;;11.40;99.90;;;;;;5013731;28;20483;-83
2023/03/21 11:44:27;;;;;;;10.07;5.30;;;11.40;99.90;;;;;;5028703;28;20044;-85
2023/03/21 11:47:07;;;;;;;11.88;5.78;;;11.40;99.90;;;;;;5028686;28;20041;-82
2023/03/21 11:49:33;;;;;;;13.07;5.45;;;11.40;99.90;;;;;;5028166;28;20098;-83
2023/03/21 11:52:37;;;;;;;11.32;5.03;;;11.40;99.90;;;;;;5012972;28;20037;-84
2023/03/21 11:55:40;;;;;;;11.38;5.32;;;11.40;99.90;;;;;;5027532;28;20089;-84
2023/03/21 12:01:31;;;;;;;10.55;5.30;;;11.30;99.90;;;;;;5003440;28;20057;-83
2023/03/21 12:04:26;;;;;;;13.23;5.95;;;11.30;99.90;;;;;;5006142;28;20049;-81
2023/03/21 12:07:25;;;;;;;14.82;5.63;;;11.30;99.90;;;;;;4992525;28;20128;-82
2023/03/21 12:10:35;;;;;;;13.38;5.32;;;11.20;99.90;;;;;;5011174;28;20037;-84
2023/03/21 12:17:04;;;;;;;12.88;5.80;;;11.30;99.90;;;;;;5064486;23;20671;-68
2023/03/21 12:19:38;;;;;;;11.38;5.50;;;11.30;99.90;;;;;;4987941;28;20047;-67
2023/03/21 12:22:12;;;;;;;9.27;5.65;;;11.30;99.90;;;;;;5007752;28;20042;-68
2023/03/21 12:24:47;;;;;;;13.07;5.22;;;11.30;99.90;;;;;;4973763;28;20084;-68
2023/03/21 12:27:41;;;;;;;9.55;5.35;;;11.30;99.90;;;;;;4983793;28;20034;-68
2023/03/21 12:30:40;;;;;;;13.57;5.50;;;11.30;99.90;;;;;;4984984;28;20046;-67
2023/03/21 12:33:14;;;;;;;13.65;5.43;;;11.40;99.90;;;;;;4985690;28;20054;-67
2023/03/21 12:35:58;;;;;;;7.70;5.40;;;11.40;99.90;;;;;;4983409;28;20101;-68
2023/03/21 12:38:45;;;;;;;10.63;4.65;;;11.40;99.90;;;;;;4985864;28;20050;-67
2023/03/21 12:42:03;;;;;;;13.93;5.70;;;11.40;99.90;;;;;;4987803;28;20150;-67
2023/03/21 12:44:34;;;;;;;14.07;5.97;;;11.40;99.90;;;;;;4964423;28;20050;-69
2023/03/21 12:47:05;;;;;;;12.48;5.40;;;11.50;99.90;;;;;;4981803;28;20046;-68
2023/03/21 12:49:39;;;;;;;12.30;6.35;;;11.50;99.90;;;;;;4985907;28;20039;-68
2023/03/21 12:52:10;;;;;;;9.95;5.22;;;11.60;99.90;;;;;;4987572;28;20042;-68
2023/03/21 12:54:48;;;;;;;12.65;6.47;;;11.60;99.90;;;;;;4981360;28;20133;-67
2023/03/21 12:57:25;;;;;;;12.63;5.60;;;11.70;99.90;;;;;;4989106;28;20042;-68
2023/03/21 13:00:20;;;;;;;13.35;6.20;;;11.70;99.90;;;;;;4984243;28;20051;-67
2023/03/21 13:02:52;;;;;;;9.48;5.07;;;11.70;99.90;;;;;;4982512;28;20076;-68
2023/03/21 13:05:36;;;;;;;9.18;5.18;;;11.70;99.90;;;;;;4989368;28;20042;-67
2023/03/21 13:08:32;;;;;;;14.02;6.13;;;11.80;99.90;;;;;;4987642;28;20046;-68
2023/03/21 13:11:00;;;;;;;10.55;5.50;;;11.90;99.90;;;;;;4983556;28;20096;-67
2023/03/21 13:13:42;;;;;;;12.55;6.80;;;12.10;99.90;;;;;;4988229;28;20038;-67
2023/03/21 13:16:29;;;;;;;10.82;5.53;;;12.20;99.90;;;;;;4987159;28;20050;-68
2023/03/21 13:19:04;;;;;;;16.35;6.35;;;12.20;99.90;;;;;;4986466;28;20042;-67
2023/03/21 13:21:57;;;;;;;13.15;6.85;;;12.20;99.90;;;;;;4986616;28;20125;-68
2023/03/21 13:24:31;;;;;;;12.55;6.78;;;12.30;99.90;;;;;;4987683;28;20038;-68
2023/03/21 13:27:05;;;;;;;11.60;5.13;;;12.20;99.90;;;;;;4982802;28;20508;-68
2023/03/21 13:29:43;;;;;;;12.95;7.32;;;12.20;99.90;;;;;;4984224;28;20544;-68
2023/03/21 13:32:33;;;;;;;13.00;6.30;;;12.10;99.90;;;;;;4989138;28;20346;-67
2023/03/21 13:35:19;;;;;;;13.90;6.10;;;12.20;99.90;;;;;;4985927;28;20065;-68
2023/03/21 13:38:05;;;;;;;15.13;6.90;;;12.20;99.90;;;;;;4991154;28;20690;-68
2023/03/21 13:40:50;;;;;;;15.43;6.70;;;12.30;99.90;;;;;;4972933;28;20042;-68
2023/03/21 13:43:50;;;;;;;15.88;6.70;;;12.30;99.90;;;;;;4987959;28;20042;-67
2023/03/21 13:46:25;;;;;;;11.73;6.47;;;12.40;99.90;;;;;;4988079;28;20160;-68
2023/03/21 13:49:08;;;;;;;9.90;6.18;;;12.40;99.90;;;;;;4987647;28;20128;-68